Airfield :
LOGIN :

Register | Disclaimer

   EN    FR    IT 

 










Legend :    VFR   Marginal VFR   IFR   Intensive IFR   Very Intensive IFR
Visi :
Ceiling :
>= 8 km
>= 3000ft
5 to 8 km
1000 to 3000 ft
1500m to 5 km
500 to 1000 ft
800 to 1500m
200 to 500 ft
< 800m
< 200 ft
Symbols :   Thunderstorms  Fog  Heavy snow  Heavy precipitations  Wind > 20 kt
SIGMETs :     Misc.  Thunderstorms  Icing  Turbulence  Mountain Waves  Volcanic Ashes






- Airport Elevation : 56 ft
- IATA code : BZR


LFMU - Beziers / Vias

CURRENT METAR :
  • 211700Z AUTO 31014KT CAVOK 22/09 Q1012 NOSIG

EXPIRED METARs :
  • 211630Z AUTO 27012KT 240V300 CAVOK 23/08 Q1012 NOSIG
  • 211600Z AUTO 28009KT 240V310 9999 ///CB 23/08 Q1012 BECMG NSC
  • 211530Z AUTO 29010KT 250V320 CAVOK 23/11 Q1012 NOSIG
  • 211500Z AUTO 30011KT 250V340 9999 ///TCU 23/10 Q1012 BECMG NSC
  • 211430Z AUTO 27013KT CAVOK 23/10 Q1012 NOSIG
  • 211400Z AUTO 30013KT 270V330 CAVOK 22/09 Q1012 NOSIG
  • 211330Z AUTO 31012KT 260V340 CAVOK 22/10 Q1012 NOSIG
  • 211300Z AUTO 29015KT 260V320 CAVOK 22/11 Q1012 NOSIG
  • 211230Z AUTO 30015KT 270V340 9999 SCT049 22/11 Q1012 NOSIG

TAF TAF LFMU
Valid from the 21 at 15:00 until the 22 at 15:00 UTC


211400Z 2115/2215 29012KT CAVOK
ATIS : +33 4 67 90 88 88



MET'MAP, your aeronautical weather chart ! - Copyright ORBIFLY December 2007 - Disclaimer

ORBIFLY MET'MAP TEAM :

Programming & Development : Alexandra Zaïnal
Original concept : Baudouin d'Aumeries
Technical & hardware support : Manuel Goepfert
Assistance : Marc-Olivier Méhu




SOURCES & CREDITS :

   NOAA